createdAt,value
2018-05-04T08:44:48.635Z,25.50
2018-05-04T08:47:17.732Z,23.80
2018-05-04T08:49:46.057Z,23.70
2018-05-04T08:52:14.361Z,24.20
2018-05-04T08:54:42.697Z,24.60
2018-05-04T08:57:11.956Z,23.90
2018-05-04T08:59:40.295Z,24.20
2018-05-04T09:02:08.618Z,23.00
2018-05-04T09:04:36.978Z,21.30
2018-05-04T09:07:05.287Z,22.60
2018-05-04T09:09:33.599Z,23.40
2018-05-04T09:12:02.708Z,24.00
2018-05-04T09:14:31.379Z,24.00
2018-05-04T09:17:00.495Z,23.20
2018-05-04T09:19:30.423Z,22.50
2018-05-04T09:21:58.953Z,22.50
2018-05-04T09:24:28.303Z,25.70
2018-05-04T09:26:57.398Z,25.00
2018-05-04T09:29:25.747Z,25.00
2018-05-04T09:31:54.242Z,23.90
2018-05-04T09:34:22.751Z,24.70
2018-05-04T09:36:52.023Z,22.50
2018-05-04T09:39:21.004Z,22.40
2018-05-04T09:41:49.497Z,22.50
2018-05-04T09:44:17.830Z,23.00
2018-05-04T09:46:46.151Z,21.80
2018-05-04T09:49:14.584Z,21.70
2018-05-04T09:51:42.907Z,20.70
2018-05-04T09:54:12.163Z,20.90
2018-05-04T09:56:41.278Z,23.20
2018-05-04T09:59:09.633Z,23.20
2018-05-04T10:01:38.732Z,22.80
2018-05-04T10:04:07.829Z,22.70
2018-05-04T10:06:36.751Z,22.70
2018-05-04T10:09:05.102Z,22.80
2018-05-04T10:11:33.425Z,21.00
2018-05-04T10:14:01.751Z,21.80
2018-05-04T10:16:30.088Z,22.80
2018-05-04T10:18:58.406Z,23.20
2018-05-04T10:21:26.763Z,24.80
2018-05-04T10:23:55.108Z,24.80
2018-05-04T10:26:24.208Z,25.40
2018-05-04T10:28:53.296Z,26.00
2018-05-04T10:31:22.428Z,26.30
2018-05-04T10:33:50.794Z,26.20
2018-05-04T10:36:19.868Z,28.30
2018-05-04T10:38:48.252Z,28.30
2018-05-04T10:41:16.550Z,28.30
2018-05-04T10:43:45.646Z,30.20
2018-05-04T10:46:14.801Z,30.40
2018-05-04T10:48:43.143Z,30.40
2018-05-04T10:51:12.923Z,28.00
2018-05-04T10:53:41.283Z,27.90
2018-05-04T10:56:09.632Z,26.50
2018-05-04T10:58:37.980Z,26.60
2018-05-04T11:01:07.077Z,26.70
2018-05-04T11:03:35.414Z,26.60
2018-05-04T11:06:03.729Z,26.60
2018-05-04T11:08:32.093Z,25.70
2018-05-04T11:11:00.423Z,25.00
2018-05-04T11:13:29.520Z,26.30
2018-05-04T11:15:58.634Z,27.10
2018-05-04T11:18:27.013Z,27.10
2018-05-04T11:20:55.351Z,28.10
2018-05-04T11:23:24.461Z,27.10
2018-05-04T11:25:52.806Z,27.10
2018-05-04T11:28:21.142Z,26.50
2018-05-04T11:30:50.352Z,23.80
2018-05-04T11:33:20.731Z,23.80
2018-05-04T11:35:49.112Z,22.90
2018-05-04T11:38:17.448Z,21.20
2018-05-04T11:40:45.773Z,22.30
2018-05-04T11:43:14.127Z,22.40
2018-05-04T11:45:42.476Z,22.20
2018-05-04T11:48:12.490Z,20.80
2018-05-04T11:50:41.673Z,21.00
2018-05-04T11:53:10.016Z,20.90
2018-05-04T11:55:38.347Z,22.00
2018-05-04T11:58:07.484Z,22.80
2018-05-04T12:00:35.819Z,22.70
2018-05-04T12:03:04.170Z,23.30
2018-05-04T12:05:32.510Z,23.50
2018-05-04T12:08:01.663Z,23.40
2018-05-04T12:10:30.002Z,23.30
2018-05-04T12:12:58.352Z,23.50
2018-05-04T12:15:26.702Z,24.80
2018-05-04T12:17:55.025Z,25.30
2018-05-04T12:20:24.108Z,24.10
2018-05-04T12:22:53.208Z,24.10
2018-05-04T12:25:21.549Z,24.30
2018-05-04T12:27:49.942Z,24.30
2018-05-04T12:30:19.034Z,25.70
2018-05-04T12:32:47.401Z,26.10
2018-05-04T12:35:17.285Z,25.50
2018-05-04T12:37:46.619Z,25.10
2018-05-04T12:40:16.183Z,25.10
2018-05-04T12:42:44.516Z,25.30
2018-05-04T12:45:12.881Z,24.30
2018-05-04T12:47:42.270Z,24.00
2018-05-04T12:50:11.470Z,24.50
2018-05-04T12:52:39.934Z,24.50
2018-05-04T12:55:08.811Z,23.60
2018-05-04T12:57:37.232Z,23.50
2018-05-04T13:00:06.399Z,22.10
2018-05-04T13:02:34.724Z,22.10
2018-05-04T13:05:04.902Z,22.50
2018-05-04T13:07:33.305Z,22.40
2018-05-04T13:10:01.773Z,22.10
2018-05-04T13:12:30.131Z,22.60
2018-05-04T13:14:58.517Z,22.50
2018-05-04T13:17:26.930Z,22.40
2018-05-04T13:19:55.555Z,21.90
2018-05-04T13:22:24.933Z,22.50
2018-05-04T13:24:54.605Z,22.20
2018-05-04T13:27:24.379Z,21.50
2018-05-04T13:29:52.875Z,21.50
2018-05-04T13:32:21.515Z,21.10
2018-05-04T13:34:49.975Z,21.50
2018-05-04T13:37:19.303Z,21.60
2018-05-04T13:39:47.645Z,21.60
2018-05-04T13:42:16.171Z,21.60
2018-05-04T13:44:44.707Z,21.00
2018-05-04T13:47:12.991Z,20.80
2018-05-04T13:49:41.366Z,20.70
2018-05-04T13:52:09.734Z,21.00
2018-05-04T13:54:38.863Z,21.00
2018-05-04T13:57:07.194Z,21.00
2018-05-04T13:59:35.592Z,21.00
2018-05-04T14:02:04.895Z,20.70
2018-05-04T14:04:34.553Z,19.90
2018-05-04T14:07:02.920Z,19.80
2018-05-04T14:09:31.332Z,19.60
2018-05-04T14:11:59.648Z,20.60
2018-05-04T14:14:30.793Z,20.60
2018-05-04T14:16:59.167Z,20.50
2018-05-04T14:19:29.062Z,19.40
2018-05-04T14:21:57.391Z,19.40
2018-05-04T14:24:26.573Z,19.20
2018-05-04T14:26:55.139Z,19.20
2018-05-04T14:29:23.489Z,19.90
2018-05-04T14:31:51.863Z,18.80
2018-05-04T14:34:20.243Z,19.10
2018-05-04T14:36:48.613Z,18.90
2018-05-04T14:39:17.767Z,21.10
2018-05-04T14:41:46.128Z,21.10
2018-05-04T14:44:14.451Z,21.20
2018-05-04T14:46:42.837Z,21.60
2018-05-04T14:49:11.250Z,21.30
2018-05-04T14:51:39.626Z,21.50
2018-05-04T14:54:07.995Z,20.60
2018-05-04T14:56:38.095Z,21.10
2018-05-04T14:59:07.974Z,21.30
2018-05-04T15:01:36.315Z,21.30
2018-05-04T15:04:06.659Z,21.50
2018-05-04T15:06:34.954Z,21.30
2018-05-04T15:09:03.318Z,21.80
2018-05-04T15:11:32.425Z,21.70
2018-05-04T15:14:00.817Z,21.70
2018-05-04T15:16:29.216Z,22.30
2018-05-04T15:18:57.622Z,23.60
2018-05-04T15:21:26.008Z,23.80
2018-05-04T15:23:54.407Z,23.80
2018-05-04T15:26:22.750Z,24.40
2018-05-04T15:28:51.100Z,25.50
2018-05-04T15:31:19.516Z,26.80
2018-05-04T15:33:47.835Z,26.60
2018-05-04T15:36:16.299Z,26.30
2018-05-04T15:38:44.640Z,26.70
2018-05-04T15:41:13.369Z,26.40
2018-05-04T15:43:41.697Z,26.50
2018-05-04T15:46:11.809Z,27.40
2018-05-04T15:48:46.997Z,29.60
2018-05-04T15:51:21.428Z,29.60
2018-05-04T15:53:49.762Z,30.90
2018-05-04T15:56:18.944Z,31.10
2018-05-04T15:58:48.060Z,30.80
2018-05-04T16:01:17.868Z,30.80
2018-05-04T16:03:47.028Z,31.80
2018-05-04T16:06:16.489Z,32.40
2018-05-04T16:08:45.709Z,31.90
2018-05-04T16:11:15.202Z,31.90
2018-05-04T16:13:44.497Z,32.50
2018-05-04T16:16:12.784Z,32.50
2018-05-04T16:18:42.072Z,32.10
2018-05-04T16:21:11.421Z,32.70
2018-05-04T16:23:39.966Z,32.60
2018-05-04T16:26:10.323Z,33.30
2018-05-04T16:28:38.705Z,33.30
2018-05-04T16:31:07.060Z,33.70
2018-05-04T16:33:36.288Z,34.40
2018-05-04T16:36:04.610Z,34.30
2018-05-04T16:38:32.951Z,33.70
2018-05-04T16:41:02.080Z,32.50
2018-05-04T16:43:30.450Z,32.60
2018-05-04T16:45:59.020Z,32.70
2018-05-04T16:48:33.155Z,33.00
2018-05-04T16:51:01.496Z,33.30
2018-05-04T16:53:30.605Z,33.70
2018-05-04T16:55:59.131Z,33.70
2018-05-04T16:58:27.452Z,33.90
2018-05-04T17:00:56.609Z,34.50
2018-05-04T17:03:25.135Z,34.50
2018-05-04T17:05:54.349Z,34.50
2018-05-04T17:08:22.880Z,34.40
2018-05-04T17:10:51.732Z,34.30
2018-05-04T17:13:20.087Z,34.10
2018-05-04T17:15:50.109Z,34.10
2018-05-04T17:18:18.441Z,34.00
2018-05-04T17:20:46.784Z,34.30
2018-05-04T17:23:15.874Z,35.40
2018-05-04T17:25:44.235Z,35.40
2018-05-04T17:28:12.562Z,36.00
2018-05-04T17:30:40.947Z,36.50
2018-05-04T17:33:09.310Z,36.60
2018-05-04T17:35:38.429Z,37.40
2018-05-04T17:38:06.818Z,37.40
2018-05-04T17:40:35.148Z,37.80
2018-05-04T17:43:03.595Z,38.00
2018-05-04T17:45:32.672Z,38.30
2018-05-04T17:48:01.054Z,38.30
2018-05-04T17:50:29.433Z,38.50
2018-05-04T17:52:57.966Z,38.70
2018-05-04T17:55:26.344Z,39.10
2018-05-04T17:57:54.695Z,39.40
2018-05-04T18:00:23.067Z,39.60
2018-05-04T18:02:51.466Z,39.70
2018-05-04T18:05:19.895Z,40.00
2018-05-04T18:07:48.285Z,40.40
2018-05-04T18:10:16.706Z,40.00
2018-05-04T18:12:45.774Z,40.70
2018-05-04T18:15:14.899Z,40.70
2018-05-04T18:17:43.326Z,40.70
2018-05-04T18:20:11.743Z,41.10
2018-05-04T18:22:40.866Z,40.50
2018-05-04T18:25:09.256Z,40.50
2018-05-04T18:27:38.187Z,39.80
2018-05-04T18:30:07.494Z,40.30
2018-05-04T18:32:35.985Z,39.70
2018-05-04T18:35:04.565Z,39.40
2018-05-04T18:37:32.974Z,40.10
2018-05-04T18:40:02.168Z,39.50
2018-05-04T18:42:31.432Z,39.40
2018-05-04T18:44:59.893Z,39.40
2018-05-04T18:47:29.953Z,39.80
2018-05-04T18:49:59.166Z,40.10
2018-05-04T18:52:27.544Z,40.10
2018-05-04T18:54:56.451Z,40.50
2018-05-04T18:57:24.905Z,41.20
2018-05-04T18:59:53.283Z,41.70
2018-05-04T19:05:27.316Z,42.50
2018-05-04T19:07:57.217Z,42.80
2018-05-04T19:10:25.823Z,42.80
2018-05-04T19:12:54.819Z,42.50
2018-05-04T19:15:23.469Z,43.30
2018-05-04T19:17:52.032Z,42.90
2018-05-04T19:20:21.908Z,43.40
2018-05-04T19:22:50.704Z,43.40
2018-05-04T19:25:19.495Z,43.40
2018-05-04T19:27:48.721Z,42.70
2018-05-04T19:30:17.501Z,43.30
2018-05-04T19:32:47.005Z,43.20
2018-05-04T19:35:16.306Z,43.30
2018-05-04T19:37:45.711Z,44.10
2018-05-04T19:40:15.377Z,43.40
2018-05-04T19:42:43.955Z,43.40
2018-05-04T19:45:12.507Z,43.50
2018-05-04T19:47:41.801Z,43.70
2018-05-04T19:50:10.187Z,44.10
2018-05-04T19:52:39.411Z,44.60
2018-05-04T19:55:08.604Z,45.10
2018-05-04T19:57:36.979Z,45.10
2018-05-04T20:00:05.340Z,45.30
2018-05-04T20:02:33.772Z,45.50
2018-05-04T20:05:02.932Z,46.50
2018-05-04T20:07:31.524Z,46.50
2018-05-04T20:10:01.393Z,47.30
2018-05-04T20:12:29.947Z,47.20
2018-05-04T20:14:58.328Z,48.00
2018-05-04T20:17:27.638Z,48.30
2018-05-04T20:19:56.120Z,49.20
2018-05-04T20:22:26.068Z,48.60
2018-05-04T20:24:54.524Z,49.00
2018-05-04T20:27:23.006Z,49.20
2018-05-04T20:29:51.967Z,49.80
2018-05-04T20:32:20.358Z,49.90
2018-05-04T20:34:48.811Z,50.10
2018-05-04T20:37:17.581Z,50.00
2018-05-04T20:39:46.222Z,50.00
2018-05-04T20:42:14.636Z,50.30
2018-05-04T20:44:42.982Z,50.40
2018-05-04T20:47:11.333Z,50.80
2018-05-04T20:49:39.678Z,50.90
2018-05-04T20:52:08.102Z,51.00
2018-05-04T20:54:36.420Z,51.30
2018-05-04T20:57:04.767Z,51.50
2018-05-04T20:59:33.099Z,51.90
2018-05-04T21:02:02.188Z,53.20
2018-05-04T21:04:30.530Z,52.50
2018-05-04T21:06:58.854Z,52.50
2018-05-04T21:09:27.199Z,53.10
2018-05-04T21:11:55.526Z,53.50
2018-05-04T21:14:24.655Z,53.80
2018-05-04T21:16:53.048Z,53.80
2018-05-04T21:19:21.434Z,53.70
2018-05-04T21:21:49.792Z,54.40
2018-05-04T21:24:18.928Z,54.50
2018-05-04T21:26:47.260Z,54.50
2018-05-04T21:29:16.379Z,54.70
2018-05-04T21:31:45.470Z,55.20
2018-05-04T21:34:14.560Z,55.00
2018-05-04T21:36:43.680Z,55.40
2018-05-04T21:39:13.676Z,55.50
2018-05-04T21:41:42.798Z,56.60
2018-05-04T21:44:12.147Z,56.70
2018-05-04T21:46:41.317Z,56.60
2018-05-04T21:49:09.673Z,56.60
2018-05-04T21:51:38.814Z,56.70
2018-05-04T21:54:07.165Z,56.60
2018-05-04T21:56:36.273Z,56.60
2018-05-04T21:59:05.265Z,57.20
2018-05-04T22:01:33.591Z,56.60
2018-05-04T22:04:01.969Z,56.50
2018-05-04T22:06:30.296Z,56.70
2018-05-04T22:08:59.413Z,56.90
2018-05-04T22:11:27.736Z,56.90
2018-05-04T22:13:57.513Z,57.00
2018-05-04T22:16:26.445Z,57.00
2018-05-04T22:18:55.641Z,57.00
2018-05-04T22:21:24.075Z,56.90
2018-05-04T22:23:53.206Z,56.70
2018-05-04T22:26:21.555Z,56.70
2018-05-04T22:28:50.013Z,56.70
2018-05-04T22:31:18.322Z,56.50
2018-05-04T22:33:47.426Z,57.20
2018-05-04T22:36:16.495Z,57.20
2018-05-04T22:38:44.824Z,57.30
2018-05-04T22:41:13.136Z,57.50
2018-05-04T22:43:41.463Z,57.40
2018-05-04T22:46:10.558Z,57.60
2018-05-04T22:48:39.661Z,57.60
2018-05-04T22:51:08.752Z,57.80
2018-05-04T22:53:37.830Z,57.80
2018-05-04T22:56:06.941Z,57.80
2018-05-04T22:58:35.237Z,57.80
2018-05-04T23:01:04.366Z,57.90
2018-05-04T23:03:32.722Z,57.90
2018-05-04T23:06:01.829Z,58.60
2018-05-04T23:08:30.918Z,58.70
2018-05-04T23:11:00.016Z,58.80
2018-05-04T23:13:29.115Z,58.60
2018-05-04T23:15:58.216Z,59.30
2018-05-04T23:18:27.314Z,59.50
2018-05-04T23:20:55.654Z,59.50
2018-05-04T23:23:23.996Z,59.30
2018-05-04T23:25:52.330Z,59.90
2018-05-04T23:28:21.398Z,60.50
2018-05-04T23:30:49.738Z,60.50
2018-05-04T23:33:18.972Z,61.10
2018-05-04T23:35:47.258Z,61.10
2018-05-04T23:38:15.579Z,61.00
2018-05-04T23:40:43.896Z,61.80
2018-05-04T23:43:12.224Z,62.00
2018-05-04T23:45:40.538Z,62.10
2018-05-04T23:48:10.005Z,63.00
2018-05-04T23:50:38.322Z,62.60
2018-05-04T23:53:09.404Z,62.50
2018-05-04T23:55:37.718Z,62.50
2018-05-04T23:58:06.057Z,62.60
